Time;durP1;ratioP1;P1;durP2;ratioP2;P2;SDS_P1;SDS_P2;PMS_P1;PMS_P2;Temp;Humidity;BMP_temperature;BMP_pressure;BME280_temperature;BME280_humidity;BME280_pressure;Samples;Min_cycle;Max_cycle;Signal;HPM_P1;HPM_P2
2021/06/24 00:02:50;;;;;;;;;32.00;30.00;;;;;28.01;52.10;98911.63;6209490;28;126118;-62
2021/06/24 00:05:54;;;;;;;;;33.00;28.00;;;;;28.37;52.75;98958.22;6209317;28;125128;-62
2021/06/24 00:08:58;;;;;;;;;33.00;30.00;;;;;28.38;52.33;98965.41;6209803;28;126003;-62
2021/06/24 00:12:02;;;;;;;;;32.00;30.00;;;;;28.38;52.58;98960.66;6208032;28;123951;-62
2021/06/24 00:15:06;;;;;;;;;32.20;28.40;;;;;28.37;52.01;98955.44;6208829;28;124981;-62
2021/06/24 00:18:09;;;;;;;;;35.00;30.00;;;;;28.20;52.61;98920.31;6196430;28;124922;-62
2021/06/24 00:21:13;;;;;;;;;35.00;31.00;;;;;28.35;52.41;98927.22;6213252;28;124886;-62
2021/06/24 00:24:18;;;;;;;;;34.00;30.00;;;;;28.39;52.46;98912.34;6212850;28;124832;-62
2021/06/24 00:27:21;;;;;;;;;35.60;31.00;;;;;28.41;52.24;98909.25;6192247;28;123737;-62
2021/06/24 00:30:24;;;;;;;;;32.40;29.40;;;;;28.32;52.21;98914.88;6196071;28;123971;-62
2021/06/24 00:33:28;;;;;;;;;34.00;29.40;;;;;28.30;52.68;98902.47;6188718;28;126009;-62
2021/06/24 00:36:36;;;;;;;;;31.80;28.40;;;;;28.27;52.48;98892.06;6188730;28;126754;-62
2021/06/24 00:39:41;;;;;;;;;31.00;29.00;;;;;28.27;52.94;98883.75;6173982;28;126052;-62
2021/06/24 00:42:44;;;;;;;;;32.00;29.00;;;;;28.18;53.02;98883.84;6214079;28;125841;-62
2021/06/24 00:45:48;;;;;;;;;32.40;28.80;;;;;28.17;52.65;98881.38;6212563;28;126442;-62
2021/06/24 00:48:56;;;;;;;;;34.25;30.00;;;;;28.19;53.08;98892.97;6195170;28;126072;-62
2021/06/24 00:51:59;;;;;;;;;32.60;29.00;;;;;28.15;53.13;98890.03;6179107;28;125040;-61
2021/06/24 00:55:06;;;;;;;;;33.00;30.00;;;;;28.03;52.87;98878.84;6174567;28;123634;-62
2021/06/24 00:58:25;;;;;;;;;34.50;30.00;;;;;28.18;53.08;98894.09;6203401;28;125995;-61
2021/06/24 01:01:32;;;;;;;;;31.80;28.40;;;;;28.16;53.21;98894.44;6212298;28;125838;-62
2021/06/24 01:04:36;;;;;;;;;36.00;32.00;;;;;28.13;53.38;98891.53;6190874;28;125180;-62
2021/06/24 01:07:40;;;;;;;;;38.20;31.60;;;;;28.08;53.00;98878.66;6210599;28;125438;-62
2021/06/24 01:11:02;;;;;;;;;37.40;31.60;;;;;27.99;53.83;98875.94;6194427;28;126576;-62
2021/06/24 01:14:06;;;;;;;;;36.50;31.50;;;;;27.95;53.73;98874.97;6213193;28;126033;-62
2021/06/24 01:17:09;;;;;;;;;36.60;31.20;;;;;27.94;53.91;98883.66;6211480;28;126125;-62
2021/06/24 01:20:14;;;;;;;;;35.40;31.40;;;;;27.93;53.59;98880.06;6193779;28;125080;-62
2021/06/24 01:23:18;;;;;;;;;37.80;31.80;;;;;27.92;54.10;98861.00;6208942;28;124854;-62
2021/06/24 01:26:22;;;;;;;;;39.00;32.20;;;;;27.89;54.12;98870.81;6196734;28;124247;-61
2021/06/24 01:29:26;;;;;;;;;41.67;33.00;;;;;27.76;54.41;98852.44;6211482;28;124165;-61
2021/06/24 01:32:30;;;;;;;;;36.00;32.00;;;;;27.83;54.27;98869.38;6193666;28;124149;-61
2021/06/24 01:35:35;;;;;;;;;38.80;31.60;;;;;27.78;54.54;98858.47;6211092;28;126570;-62
2021/06/24 01:38:38;;;;;;;;;35.40;31.00;;;;;27.75;54.42;98852.81;6183218;28;126186;-61
2021/06/24 01:42:04;;;;;;;;;35.00;31.40;;;;;27.74;54.58;98842.88;6211639;28;124653;-62
2021/06/24 01:45:13;;;;;;;;;36.60;31.60;;;;;27.72;54.56;98842.38;6185029;28;126004;-61
2021/06/24 01:48:16;;;;;;;;;39.00;32.00;;;;;27.56;54.54;98825.56;6207397;28;126175;-61
2021/06/24 01:51:22;;;;;;;;;32.00;30.75;;;;;27.71;54.49;98849.09;6206596;28;124385;-61
2021/06/24 01:54:26;;;;;;;;;35.40;31.60;;;;;27.66;54.61;98849.28;6192897;28;124554;-61
2021/06/24 01:57:31;;;;;;;;;33.40;30.00;;;;;27.63;54.57;98850.75;6208873;28;126140;-61
2021/06/24 02:00:42;;;;;;;;;37.40;32.00;;;;;27.57;54.69;98844.59;6192590;28;125810;-61
2021/06/24 02:03:52;;;;;;;;;37.00;31.25;;;;;27.52;55.05;98852.25;6207966;28;126483;-62
2021/06/24 02:06:57;;;;;;;;;32.60;31.00;;;;;27.52;55.29;98855.84;6207264;28;126082;-61
2021/06/24 02:10:23;;;;;;;;;34.40;30.40;;;;;27.50;55.08;98857.34;6199056;28;124828;-61
2021/06/24 02:13:32;;;;;;;;;37.33;32.33;;;;;27.46;55.05;98853.59;6189903;28;124175;-61
2021/06/24 02:16:42;;;;;;;;;40.60;32.00;;;;;27.46;55.29;98867.44;6188996;28;125298;-61
2021/06/24 02:19:59;;;;;;;;;41.40;35.00;;;;;27.42;55.58;98872.81;6199801;28;125415;-61
2021/06/24 02:23:17;;;;;;;;;36.75;31.75;;;;;27.38;55.68;98859.97;6190249;28;125315;-61
2021/06/24 02:26:28;;;;;;;;;38.40;33.00;;;;;27.37;55.60;98858.31;6181274;28;124348;-62
2021/06/24 02:29:40;;;;;;;;;40.00;33.00;;;;;27.32;56.03;98859.31;6204872;28;124113;-62
2021/06/24 02:32:45;;;;;;;;;37.80;32.20;;;;;27.28;55.96;98861.16;6187477;28;124552;-61
2021/06/24 02:35:56;;;;;;;;;40.40;32.60;;;;;27.01;56.21;98825.59;6184147;28;124317;-61
2021/06/24 02:39:04;;;;;;;;;38.80;33.00;;;;;27.06;56.20;98826.25;6217936;28;127030;-61
2021/06/24 02:42:10;;;;;;;;;39.00;33.00;;;;;27.04;55.81;98825.75;6208350;28;126104;-61
2021/06/24 02:45:16;;;;;;;;;42.00;34.40;;;;;27.16;55.63;98847.22;6210663;28;123683;-61
2021/06/24 02:48:21;;;;;;;;;42.00;34.00;;;;;27.15;55.88;98837.28;6189228;28;124714;-62
2021/06/24 02:51:26;;;;;;;;;44.50;35.50;;;;;27.10;56.09;98826.38;6197057;28;126243;-61
2021/06/24 02:54:56;;;;;;;;;43.67;35.00;;;;;27.07;56.42;98825.06;6203100;28;126080;-61
2021/06/24 02:58:10;;;;;;;;;44.75;35.00;;;;;27.03;56.42;98823.31;6192647;28;123833;-61
2021/06/24 03:01:39;;;;;;;;;38.00;32.00;;;;;26.94;56.43;98819.75;6187330;28;127379;-61
2021/06/24 03:04:47;;;;;;;;;35.40;32.00;;;;;26.90;56.72;98814.09;6201753;28;125957;-61
2021/06/24 03:07:50;;;;;;;;;39.00;32.33;;;;;26.89;56.80;98811.63;6200408;28;123721;-61
2021/06/24 03:11:13;;;;;;;;;41.20;33.40;;;;;26.83;56.78;98808.22;6195363;28;125915;-61
2021/06/24 03:14:23;;;;;;;;;42.00;33.25;;;;;26.78;57.13;98802.06;6199774;28;125994;-61
2021/06/24 03:17:28;;;;;;;;;36.50;32.00;;;;;26.72;56.96;98816.06;6187359;28;126863;-62
2021/06/24 03:20:33;;;;;;;;;40.20;34.60;;;;;26.67;57.54;98820.97;6191628;28;126501;-61
2021/06/24 03:23:36;;;;;;;;;34.60;30.00;;;;;26.72;57.13;98820.78;6208785;28;126323;-62
2021/06/24 03:26:39;;;;;;;;;42.67;33.00;;;;;26.71;57.33;98811.69;6191393;28;126090;-61
2021/06/24 03:29:45;;;;;;;;;39.50;33.00;;;;;26.69;57.24;98810.38;6206426;28;125124;-61
2021/06/24 03:32:50;;;;;;;;;44.80;35.80;;;;;26.66;57.52;98808.28;6185413;28;123678;-61
2021/06/24 03:35:54;;;;;;;;;45.60;36.00;;;;;26.67;57.59;98798.84;6208553;28;126017;-61
2021/06/24 03:38:59;;;;;;;;;41.75;36.00;;;;;26.68;57.53;98803.22;6209779;28;124173;-62
2021/06/24 03:42:09;;;;;;;;;42.60;36.00;;;;;26.66;57.58;98798.03;6176821;28;128024;-61
2021/06/24 03:45:14;;;;;;;;;40.60;34.20;;;;;26.70;57.52;98795.41;6204778;28;126247;-61
2021/06/24 03:48:19;;;;;;;;;39.20;32.20;;;;;26.78;57.21;98802.84;6191216;28;125980;-62
2021/06/24 03:51:29;;;;;;;;;38.60;33.00;;;;;26.83;57.53;98793.59;6188434;28;125986;-61
2021/06/24 03:54:35;;;;;;;;;47.00;37.00;;;;;26.97;57.28;98788.69;6208801;28;124668;-62
2021/06/24 03:57:41;;;;;;;;;38.50;33.00;;;;;27.09;56.93;98789.59;6193425;28;126526;-62
2021/06/24 04:00:58;;;;;;;;;40.60;33.00;;;;;27.16;56.40;98797.38;6179623;28;125034;-62
2021/06/24 04:04:03;;;;;;;;;40.00;32.50;;;;;27.27;56.37;98795.06;6209163;28;123767;-61
2021/06/24 04:07:16;;;;;;;;;40.00;33.00;;;;;27.19;55.92;98763.50;6190984;28;126005;-61
2021/06/24 04:10:20;;;;;;;;;44.00;35.50;;;;;27.50;55.67;98788.13;6191011;28;124651;-61
2021/06/24 04:13:24;;;;;;;;;36.60;32.00;;;;;27.54;55.61;98772.44;6204224;28;126811;-62
2021/06/24 04:16:30;;;;;;;;;42.00;33.40;;;;;27.75;55.44;98789.91;6216793;28;124858;-62
2021/06/24 04:19:35;;;;;;;;;38.40;33.40;;;;;27.81;54.90;98788.53;6196121;28;124945;-61
2021/06/24 04:22:38;;;;;;;;;42.00;35.00;;;;;27.90;54.80;98800.38;6207383;28;126131;-61
2021/06/24 04:25:47;;;;;;;;;40.20;33.00;;;;;27.98;54.78;98793.97;6190804;28;126061;-62
2021/06/24 04:28:52;;;;;;;;;43.60;34.00;;;;;27.98;54.74;98785.66;6190608;28;125931;-62
2021/06/24 04:31:55;;;;;;;;;42.00;34.40;;;;;28.01;54.08;98787.72;6183724;28;124849;-62
2021/06/24 04:35:00;;;;;;;;;40.80;33.20;;;;;28.08;54.53;98780.84;6192969;28;124076;-62
2021/06/24 04:38:05;;;;;;;;;46.40;36.00;;;;;28.17;53.80;98787.13;6200225;28;125985;-62
2021/06/24 04:41:10;;;;;;;;;39.75;33.75;;;;;28.27;53.83;98798.63;6174375;28;123724;-62
2021/06/24 04:44:49;;;;;;;;;44.00;35.00;;;;;28.33;53.84;98780.63;6202185;28;124600;-62
2021/06/24 04:47:53;;;;;;;;;40.80;33.80;;;;;28.43;53.30;98794.06;6222720;28;124637;-62
2021/06/24 04:50:58;;;;;;;;;42.40;35.00;;;;;28.50;53.63;98793.50;6194419;28;125503;-61
2021/06/24 04:54:02;;;;;;;;;42.60;35.00;;;;;28.43;53.40;98810.72;6208129;28;126105;-62
2021/06/24 04:57:12;;;;;;;;;40.00;33.60;;;;;28.48;53.75;98798.59;6190059;28;125396;-61
2021/06/24 05:00:45;;;;;;;;;45.25;35.00;;;;;28.62;53.57;98798.28;6191193;28;127710;-62
2021/06/24 05:04:07;;;;;;;;;44.60;36.00;;;;;28.65;53.14;98803.94;6202766;28;125907;-61
2021/06/24 05:07:12;;;;;;;;;41.50;36.00;;;;;28.70;53.32;98814.00;6203339;28;125966;-61
2021/06/24 05:10:15;;;;;;;;;42.50;34.00;;;;;28.92;52.80;98812.84;6211753;28;126111;-62
2021/06/24 05:13:18;;;;;;;;;45.00;37.25;;;;;29.06;52.47;98807.75;6211697;28;125148;-62
2021/06/24 05:16:21;;;;;;;;;43.60;36.00;;;;;29.05;52.71;98786.72;6201779;28;127217;-62
2021/06/24 05:19:24;;;;;;;;;43.00;35.00;;;;;29.16;52.38;98790.66;6197935;28;127960;-62
2021/06/24 05:22:29;;;;;;;;;47.20;37.00;;;;;29.42;52.09;98801.47;6189489;28;126076;-62
2021/06/24 05:25:32;;;;;;;;;47.00;38.50;;;;;29.50;51.96;98811.63;6209294;28;125847;-62
2021/06/24 05:28:36;;;;;;;;;46.80;38.00;;;;;29.58;51.74;98805.94;6209354;28;124558;-62
2021/06/24 05:31:39;;;;;;;;;46.75;37.75;;;;;29.73;51.59;98809.16;6209398;28;126322;-62
2021/06/24 05:34:42;;;;;;;;;46.40;38.00;;;;;29.77;50.75;98799.78;6208659;28;126346;-62
2021/06/24 05:37:54;;;;;;;;;47.00;38.80;;;;;29.83;51.24;98812.28;6189860;28;125161;-62
2021/06/24 05:40:57;;;;;;;;;46.20;36.00;;;;;29.88;50.66;98820.38;6205868;28;126298;-62
2021/06/24 05:44:00;;;;;;;;;47.00;38.00;;;;;29.94;50.74;98823.75;6190527;28;126769;-62
2021/06/24 05:47:04;;;;;;;;;47.60;40.00;;;;;29.58;50.87;98758.72;6195301;28;125188;-62
2021/06/24 05:50:08;;;;;;;;;47.60;38.60;;;;;30.05;50.93;98808.22;6197633;28;124907;-62
2021/06/24 05:53:13;;;;;;;;;46.80;38.00;;;;;30.15;50.83;98799.38;6211683;28;126584;-62
2021/06/24 05:56:16;;;;;;;;;51.60;39.00;;;;;30.21;50.19;98805.47;6196187;28;125844;-62
2021/06/24 05:59:19;;;;;;;;;48.40;39.00;;;;;30.11;50.52;98793.69;6198450;28;124635;-63
2021/06/24 06:02:30;;;;;;;;;48.00;38.80;;;;;30.19;51.00;98793.91;6198686;28;126483;-61
2021/06/24 06:05:33;;;;;;;;;50.00;39.60;;;;;30.35;50.60;98787.22;6205844;28;126069;-63
2021/06/24 06:08:41;;;;;;;;;51.20;41.60;;;;;30.34;49.82;98790.38;6195388;28;124935;-63
2021/06/24 06:11:44;;;;;;;;;46.75;38.00;;;;;30.21;50.36;98772.09;6190516;28;127812;-61
2021/06/24 06:14:47;;;;;;;;;46.60;38.00;;;;;30.17;49.80;98765.63;6186801;28;123286;-62
2021/06/24 06:17:51;;;;;;;;;47.00;38.00;;;;;30.21;50.74;98772.91;6171243;28;125684;-62
2021/06/24 06:20:56;;;;;;;;;52.00;40.00;;;;;30.13;50.05;98768.31;6168090;28;125189;-62
2021/06/24 06:24:01;;;;;;;;;49.75;38.75;;;;;30.19;50.42;98761.34;6185062;28;125877;-62
2021/06/24 06:27:05;;;;;;;;;47.00;38.00;;;;;30.43;50.61;98788.25;6186189;28;124742;-62
2021/06/24 06:30:09;;;;;;;;;49.00;38.00;;;;;30.71;50.40;98783.47;6203511;28;125842;-61
2021/06/24 06:33:12;;;;;;;;;47.40;38.40;;;;;30.86;49.67;98779.09;6186988;28;124559;-61
2021/06/24 06:36:15;;;;;;;;;49.50;39.00;;;;;31.03;49.41;98787.13;6199987;28;123993;-62
2021/06/24 06:39:20;;;;;;;;;51.00;40.00;;;;;31.09;48.79;98793.22;6196185;28;126266;-62
2021/06/24 06:42:23;;;;;;;;;49.00;38.60;;;;;31.23;49.75;98788.81;6209947;28;124733;-60
2021/06/24 06:45:28;;;;;;;;;48.00;39.00;;;;;31.48;49.12;98786.63;6209692;28;124716;-63
2021/06/24 06:48:32;;;;;;;;;48.50;39.50;;;;;31.46;48.37;98757.53;6209120;28;125971;-62
2021/06/24 06:51:35;;;;;;;;;49.40;39.00;;;;;31.85;48.71;98792.69;6209268;28;126123;-62
2021/06/24 06:54:40;;;;;;;;;48.25;40.25;;;;;32.06;47.74;98793.13;6208713;28;126092;-61
2021/06/24 06:57:43;;;;;;;;;47.50;39.00;;;;;32.22;47.05;98796.69;6209432;28;126854;-62
2021/06/24 07:00:46;;;;;;;;;45.00;38.00;;;;;32.38;46.91;98799.41;6208539;28;126274;-63
2021/06/24 07:04:05;;;;;;;;;44.75;38.00;;;;;32.62;46.56;98787.94;6194317;28;126178;-63
2021/06/24 07:07:09;;;;;;;;;47.00;38.75;;;;;32.83;45.68;98797.91;6207348;28;124984;-61
2021/06/24 07:10:14;;;;;;;;;47.40;39.00;;;;;32.95;44.97;98801.31;6209253;28;126096;-62
2021/06/24 07:13:17;;;;;;;;;46.00;38.00;;;;;33.05;45.62;98806.28;6191270;28;124369;-63
2021/06/24 07:16:21;;;;;;;;;47.00;37.00;;;;;33.22;44.51;98802.22;6208529;28;126159;-62
2021/06/24 07:19:24;;;;;;;;;45.00;37.60;;;;;33.32;44.60;98798.81;6208250;28;126423;-62
2021/06/24 07:22:27;;;;;;;;;48.25;39.00;;;;;33.45;43.77;98799.41;6208425;28;124741;-61
2021/06/24 07:25:32;;;;;;;;;47.00;37.80;;;;;33.34;43.76;98753.69;6207529;28;126566;-61
2021/06/24 07:28:35;;;;;;;;;46.00;36.00;;;;;33.73;43.57;98790.66;6238376;27;126750;-62
2021/06/24 07:31:40;;;;;;;;;44.20;36.20;;;;;33.86;43.00;98783.66;6208601;28;124945;-62
2021/06/24 07:34:43;;;;;;;;;43.50;36.00;;;;;33.79;43.63;98789.94;6186106;28;126007;-61
2021/06/24 07:37:47;;;;;;;;;49.40;38.60;;;;;33.99;43.64;98798.22;6184096;28;125554;-61
2021/06/24 07:40:52;;;;;;;;;47.00;39.00;;;;;34.11;42.98;98798.75;6183662;28;124834;-62
2021/06/24 07:43:55;;;;;;;;;47.00;38.00;;;;;34.13;42.22;98804.78;6199090;28;126250;-62
2021/06/24 07:46:59;;;;;;;;;49.00;38.00;;;;;34.18;42.28;98804.50;6197010;28;126269;-62
2021/06/24 07:50:02;;;;;;;;;48.20;38.60;;;;;34.35;43.13;98798.31;6206632;28;126167;-62
2021/06/24 07:53:06;;;;;;;;;47.00;39.00;;;;;34.57;42.38;98804.16;6207985;28;125107;-62
2021/06/24 07:56:11;;;;;;;;;50.00;37.20;;;;;34.72;41.59;98777.94;6207116;28;126833;-62
2021/06/24 07:59:16;;;;;;;;;47.00;37.40;;;;;34.86;42.01;98794.91;6207950;28;126303;-62
2021/06/24 08:02:19;;;;;;;;;50.00;40.00;;;;;35.02;41.47;98791.84;6204615;28;126553;-62
2021/06/24 08:05:23;;;;;;;;;47.20;38.00;;;;;35.28;41.68;98790.91;6198054;28;126406;-63
2021/06/24 08:08:27;;;;;;;;;48.25;39.00;;;;;35.35;40.32;98788.94;6194319;28;124622;-62
2021/06/24 08:11:31;;;;;;;;;48.40;38.00;;;;;35.44;40.53;98785.81;6193918;28;125035;-62
2021/06/24 08:14:35;;;;;;;;;50.00;38.60;;;;;35.52;39.72;98790.28;6207969;28;124673;-63
2021/06/24 08:17:38;;;;;;;;;47.80;39.60;;;;;35.51;40.43;98789.47;6207523;28;126024;-61
2021/06/24 08:20:41;;;;;;;;;45.00;36.00;;;;;35.79;40.11;98796.50;6231021;27;125926;-62
2021/06/24 08:23:44;;;;;;;;;44.40;36.00;;;;;36.02;38.93;98792.19;6207670;28;125285;-62
2021/06/24 08:26:49;;;;;;;;;43.80;36.00;;;;;36.20;39.74;98803.56;6223273;28;123963;-63
2021/06/24 08:29:52;;;;;;;;;45.00;35.40;;;;;36.50;38.70;98805.28;6208496;28;126446;-63
2021/06/24 08:32:56;;;;;;;;;45.00;36.33;;;;;36.83;38.01;98790.94;6201376;28;126650;-63
2021/06/24 08:35:59;;;;;;;;;45.00;36.00;;;;;37.08;37.60;98797.44;6208120;28;124602;-62
2021/06/24 08:39:02;;;;;;;;;42.50;35.00;;;;;37.32;37.16;98801.44;6209829;28;125064;-61
2021/06/24 08:42:07;;;;;;;;;42.00;36.00;;;;;37.52;36.72;98802.66;6212449;28;126662;-61
2021/06/24 08:45:12;;;;;;;;;43.00;35.25;;;;;37.73;36.28;98799.81;6212677;28;125486;-60
2021/06/24 08:48:16;;;;;;;;;44.40;35.20;;;;;37.86;35.93;98790.94;6212504;28;126529;-61
2021/06/24 08:51:20;;;;;;;;;45.50;37.00;;;;;38.01;35.67;98796.16;6244854;27;124795;-62
2021/06/24 08:54:25;;;;;;;;;44.20;35.80;;;;;38.16;35.14;98794.09;6205636;28;126096;-61
2021/06/24 08:57:41;;;;;;;;;49.00;37.60;;;;;38.26;35.59;98793.25;6208123;28;126447;-62
2021/06/24 09:00:45;;;;;;;;;44.50;36.50;;;;;38.33;34.98;98767.06;6213074;28;126062;-63
2021/06/24 09:03:53;;;;;;;;;40.20;35.00;;;;;38.56;34.79;98785.06;6200014;28;124619;-62
2021/06/24 09:07:07;;;;;;;;;42.00;35.00;;;;;38.71;33.49;98779.38;6196368;28;124701;-62
2021/06/24 09:10:11;;;;;;;;;43.20;35.20;;;;;38.67;33.70;98775.75;6204442;28;126206;-61
2021/06/24 09:13:25;;;;;;;;;47.80;38.60;;;;;38.82;32.91;98780.09;6193703;28;124992;-60
2021/06/24 09:16:30;;;;;;;;;47.50;38.00;;;;;38.86;34.40;98786.50;6200546;28;124591;-62
2021/06/24 09:19:34;;;;;;;;;43.00;35.60;;;;;39.02;33.91;98783.19;6201541;28;126687;-61
2021/06/24 09:22:39;;;;;;;;;45.20;35.20;;;;;39.15;34.51;98776.63;6203653;28;125005;-61
2021/06/24 09:25:44;;;;;;;;;45.50;38.00;;;;;39.33;33.80;98766.06;6189458;28;123926;-61
2021/06/24 09:28:51;;;;;;;;;46.20;38.00;;;;;39.40;33.37;98760.34;6200127;28;125590;-61
2021/06/24 09:31:58;;;;;;;;;48.40;39.00;;;;;39.28;34.37;98763.66;6206532;28;126489;-62
2021/06/24 09:35:03;;;;;;;;;47.20;39.00;;;;;38.92;34.31;98765.94;6208558;28;126728;-62
2021/06/24 09:38:08;;;;;;;;;49.00;40.00;;;;;38.79;35.13;98759.19;6204243;28;124698;-62
2021/06/24 09:41:16;;;;;;;;;50.00;41.00;;;;;38.74;36.16;98767.28;6204524;28;124801;-62
2021/06/24 09:44:22;;;;;;;;;49.60;40.00;;;;;38.78;35.18;98756.75;6236259;27;126055;-62
2021/06/24 09:47:28;;;;;;;;;48.75;39.00;;;;;39.01;35.44;98765.47;6209432;28;124879;-62
2021/06/24 09:50:31;;;;;;;;;49.40;41.00;;;;;38.98;35.58;98755.03;6205838;28;126009;-62
2021/06/24 09:53:47;;;;;;;;;52.60;41.00;;;;;38.88;35.88;98765.19;6204777;28;124954;-62
2021/06/24 09:56:51;;;;;;;;;49.00;40.50;;;;;38.91;35.43;98758.72;6210812;28;124648;-62
2021/06/24 09:59:56;;;;;;;;;50.00;40.00;;;;;39.05;36.43;98754.97;6210847;28;124892;-62
2021/06/24 10:03:02;;;;;;;;;49.25;39.00;;;;;39.22;35.38;98753.22;6231958;27;126040;-62
2021/06/24 10:06:05;;;;;;;;;49.75;38.75;;;;;38.73;35.57;98760.81;6209169;28;125630;-62
2021/06/24 10:09:09;;;;;;;;;49.75;38.50;;;;;38.55;35.08;98749.69;6210695;28;126190;-62
2021/06/24 10:12:15;;;;;;;;;49.00;40.00;;;;;38.58;35.80;98745.22;6210353;28;124007;-62
2021/06/24 10:15:22;;;;;;;;;42.25;34.75;;;;;38.62;35.41;98751.63;6210918;28;124912;-62
2021/06/24 10:18:26;;;;;;;;;42.50;35.00;;;;;38.60;36.03;98748.44;6210931;28;124968;-62
2021/06/24 10:21:32;;;;;;;;;41.60;35.20;;;;;38.39;35.55;98731.63;6242977;27;125879;-62
2021/06/24 10:24:39;;;;;;;;;43.60;35.60;;;;;38.14;35.27;98726.13;6228504;27;127021;-62
2021/06/24 10:27:46;;;;;;;;;39.00;34.00;;;;;38.13;35.43;98727.34;6210139;28;124755;-63
2021/06/24 10:30:51;;;;;;;;;41.00;33.33;;;;;38.38;36.48;98730.03;6209288;28;127075;-60
2021/06/24 10:33:55;;;;;;;;;40.00;34.60;;;;;38.35;35.25;98730.84;6202210;28;124470;-61
2021/06/24 10:37:22;;;;;;;;;35.40;32.40;;;;;38.40;34.19;98730.44;6205672;28;124879;-62
2021/06/24 10:40:30;;;;;;;;;37.50;32.00;;;;;38.41;34.97;98726.41;6194717;28;126108;-61
2021/06/24 10:43:45;;;;;;;;;44.00;35.00;;;;;38.49;35.87;98725.97;6210955;28;126075;-60
2021/06/24 10:47:07;;;;;;;;;37.75;32.00;;;;;38.74;35.19;98705.28;6209317;28;124591;-62
2021/06/24 10:50:37;;;;;;;;;42.20;35.00;;;;;39.21;35.25;98709.31;6210596;28;124570;-61
2021/06/24 10:53:49;;;;;;;;;40.80;34.00;;;;;39.42;34.46;98687.38;6203076;28;125832;-63
2021/06/24 10:56:53;;;;;;;;;35.25;32.00;;;;;39.83;34.42;98706.31;6209250;28;97090;-62
2021/06/24 10:59:57;;;;;;;;;38.20;33.00;;;;;40.07;33.38;98704.38;6224735;28;125750;-61
2021/06/24 11:03:03;;;;;;;;;35.00;31.60;;;;;40.09;32.87;98699.09;6208026;28;126924;-63
2021/06/24 11:06:10;;;;;;;;;33.00;31.00;;;;;40.30;33.21;98706.50;6204949;28;127058;-63
2021/06/24 11:09:16;;;;;;;;;35.60;32.00;;;;;40.52;33.11;98707.78;6209607;28;125903;-62
2021/06/24 11:12:53;;;;;;;;;35.67;32.33;;;;;40.36;32.53;98694.31;6209958;28;125770;-62
2021/06/24 11:15:57;;;;;;;;;36.00;31.00;;;;;40.37;32.81;98687.44;6191693;28;125603;-62
2021/06/24 11:19:04;;;;;;;;;36.00;32.60;;;;;40.68;32.50;98697.47;6184880;28;125968;-62
2021/06/24 11:22:08;;;;;;;;;38.40;33.00;;;;;40.85;32.12;98683.50;6184143;28;125811;-63
2021/06/24 11:25:11;;;;;;;;;36.60;32.40;;;;;40.98;32.14;98684.47;6198801;28;126557;-62
2021/06/24 11:28:39;;;;;;;;;35.75;32.00;;;;;40.77;31.49;98684.81;6199458;28;124802;-61
2021/06/24 11:31:48;;;;;;;;;35.25;32.00;;;;;40.76;32.07;98684.03;6190166;28;126263;-61
2021/06/24 11:35:02;;;;;;;;;35.40;32.40;;;;;40.90;32.68;98685.84;6202341;28;124493;-62
2021/06/24 11:38:05;;;;;;;;;36.33;32.33;;;;;41.08;32.19;98675.84;6208682;28;124827;-62
2021/06/24 11:41:10;;;;;;;;;37.60;33.20;;;;;40.93;31.15;98680.13;6208910;28;125833;-63
2021/06/24 11:44:13;;;;;;;;;37.80;32.40;;;;;40.82;31.47;98671.00;6208801;28;125867;-63
2021/06/24 11:47:18;;;;;;;;;38.40;32.80;;;;;40.78;31.85;98664.63;6209627;28;125911;-62
2021/06/24 12:00:43;;;;;;;;;36.40;31.40;;;;;41.05;32.83;98641.97;6184799;28;126000;-61
2021/06/24 12:03:46;;;;;;;;;37.80;32.40;;;;;41.14;32.59;98638.56;6187835;28;125952;-62
2021/06/24 12:06:54;;;;;;;;;36.00;32.00;;;;;41.30;32.07;98633.78;6184765;28;124829;-62
2021/06/24 12:09:57;;;;;;;;;36.00;31.60;;;;;41.49;31.64;98624.53;6183051;28;124652;-63
2021/06/24 12:13:00;;;;;;;;;33.00;31.00;;;;;41.25;29.87;98622.97;6187158;28;124769;-62
2021/06/24 12:16:05;;;;;;;;;36.40;32.00;;;;;41.26;31.33;98618.13;6188592;28;127172;-61
2021/06/24 12:19:09;;;;;;;;;37.40;31.00;;;;;41.35;31.26;98621.16;6187735;28;126152;-62
2021/06/24 12:22:15;;;;;;;;;37.40;32.00;;;;;41.33;31.01;98587.69;6199629;28;124148;-62
2021/06/24 12:25:21;;;;;;;;;33.75;31.00;;;;;41.65;30.73;98606.84;6189630;28;124782;-62
2021/06/24 12:28:25;;;;;;;;;34.50;31.50;;;;;41.80;30.51;98599.63;6190066;28;124493;-62
2021/06/24 12:31:32;;;;;;;;;34.60;30.60;;;;;41.66;29.98;98582.97;6203068;28;126111;-61
2021/06/24 12:34:36;;;;;;;;;34.50;31.50;;;;;41.60;30.38;98581.06;6204301;28;124809;-62
2021/06/24 12:37:43;;;;;;;;;33.75;30.75;;;;;41.62;31.19;98579.41;6197302;28;125150;-62
2021/06/24 12:40:50;;;;;;;;;32.40;30.40;;;;;41.56;30.85;98567.00;6207908;28;127596;-62
2021/06/24 12:44:00;;;;;;;;;36.50;32.00;;;;;41.67;30.96;98573.25;6192484;28;124541;-63
2021/06/24 12:47:04;;;;;;;;;37.00;32.60;;;;;41.64;30.86;98565.59;6187198;28;123997;-62
2021/06/24 12:50:15;;;;;;;;;34.60;31.00;;;;;41.76;31.08;98562.13;6203342;28;124676;-61
2021/06/24 12:53:44;;;;;;;;;31.00;29.00;;;;;41.65;30.62;98560.75;6211018;28;126010;-62
2021/06/24 12:56:50;;;;;;;;;34.20;30.00;;;;;41.43;31.29;98563.22;6226786;28;125038;-63
2021/06/24 12:59:53;;;;;;;;;30.80;29.40;;;;;41.32;30.77;98560.63;6214881;28;125915;-62
2021/06/24 13:02:57;;;;;;;;;35.50;32.75;;;;;41.22;31.00;98558.81;6202522;28;125883;-62
2021/06/24 13:06:07;;;;;;;;;35.60;31.20;;;;;41.29;31.19;98557.88;6205236;28;123914;-63
2021/06/24 13:09:14;;;;;;;;;32.75;31.00;;;;;41.31;30.96;98538.41;6208021;28;124990;-65
2021/06/24 13:12:17;;;;;;;;;30.00;29.00;;;;;41.50;30.22;98534.78;6196099;28;124661;-63
2021/06/24 13:15:33;;;;;;;;;30.20;27.60;;;;;41.34;29.23;98532.69;6192739;28;126305;-62
2021/06/24 13:18:49;;;;;;;;;32.40;29.00;;;;;41.35;30.57;98530.63;6188032;28;124733;-63
2021/06/24 13:21:58;;;;;;;;;29.40;27.40;;;;;41.39;30.26;98520.06;6188067;28;125192;-62
2021/06/24 13:25:05;;;;;;;;;30.20;29.00;;;;;41.37;30.10;98512.00;6231504;27;127053;-62
2021/06/24 13:28:09;;;;;;;;;29.60;28.00;;;;;41.31;29.70;98496.78;6187042;28;126841;-63
2021/06/24 13:31:12;;;;;;;;;28.00;28.00;;;;;41.22;30.23;98492.94;6194021;28;126639;-62
2021/06/24 13:34:16;;;;;;;;;31.40;28.00;;;;;41.23;30.28;98497.38;6189954;28;126171;-62
2021/06/24 13:37:20;;;;;;;;;30.20;29.20;;;;;41.14;30.95;98500.00;6201256;28;126057;-63
2021/06/24 13:40:28;;;;;;;;;29.50;26.50;;;;;40.94;31.24;98485.81;6197697;28;125762;-62
2021/06/24 13:43:32;;;;;;;;;29.60;28.00;;;;;40.66;31.01;98485.13;6206734;28;124632;-62
2021/06/24 13:46:37;;;;;;;;;29.00;27.00;;;;;40.38;31.70;98496.94;6205725;28;126094;-62
2021/06/24 13:49:40;;;;;;;;;28.75;27.25;;;;;40.14;32.23;98495.31;6204728;28;126214;-63
2021/06/24 13:52:43;;;;;;;;;31.25;28.00;;;;;39.84;32.59;98494.16;6205496;28;126521;-62
2021/06/24 13:55:51;;;;;;;;;28.00;26.50;;;;;39.27;32.54;98494.13;6211204;28;126037;-63
2021/06/24 13:58:55;;;;;;;;;28.00;26.00;;;;;39.07;33.31;98500.81;6211183;28;124311;-62
2021/06/24 14:01:58;;;;;;;;;30.00;28.00;;;;;38.87;33.86;98490.16;6210882;28;127181;-62
2021/06/24 14:05:02;;;;;;;;;27.20;25.80;;;;;38.68;33.93;98496.41;6211031;28;126146;-62
2021/06/24 14:08:06;;;;;;;;;29.20;27.00;;;;;38.50;33.42;98488.16;6209042;28;124896;-61
2021/06/24 14:11:13;;;;;;;;;28.00;24.00;;;;;38.51;33.21;98477.69;6208126;28;124142;-61
2021/06/24 14:14:17;;;;;;;;;28.00;26.00;;;;;38.49;32.07;98475.28;6200541;28;125660;-62
2021/06/24 14:17:20;;;;;;;;;22.50;21.00;;;;;38.34;31.14;98454.06;6201139;28;124501;-62
2021/06/24 14:20:23;;;;;;;;;22.80;21.00;;;;;38.21;32.88;98455.81;6200314;28;126124;-64